»·PEaware :: N3KF KMSO-KSFF

N3KF :: KMSO-KSFF

FLIGHT INFORMATION

Flight Status: Arrived
Operator: Privately registered:
United States
More flights under this callsign
Pilot: Alex K. (14822)
Aircraft: BEECH AIRCRAFT BONANZA
(BE35)
More flights by this aircraft type
Origin: KMSO Missoula Intl
United States
Destination: KSFF Felts
United States
More flights between these airports :: More routes between these airports
Route: +MZULA5 MLP V2 GEG
File this flight plan on PilotEdge
Remarks:
Altitude:
(Current/Filed)
12,000ft
Speed:
(Current/Filed)
180kts
Departed: 07-Jan-19 08:58 AM
Arrived: 07-Jan-19 10:40 AM
Distance/Time
Traveled:
139nm/1:42
Distance/Time
To Go:
Arrived

Flight Plot

Page will automatically refresh every two minutes.

Flight plan parsing failed; only flown route is shown


Map Options




Map Legend


Flown Route
Filed Route
Departure Airport
Arrival Airport
Navaid (VOR, NDB)
Fix

Horizontal Profiles

Position Reports

Time Latitude Longitude Heading Altitude Ground
Speed
07-Jan-19 07:52 46.924568 -114.090810 218 3198ft 0kts
07-Jan-19 07:53 46.924568 -114.090810 218 3198ft 0kts
07-Jan-19 07:54 46.924568 -114.090810 218 3198ft 0kts
07-Jan-19 07:55 46.924568 -114.090810 218 3198ft 0kts
07-Jan-19 07:56 46.924568 -114.090810 218 3198ft 0kts
07-Jan-19 07:57 46.924568 -114.090810 218 3198ft 0kts
07-Jan-19 07:58 46.924568 -114.090810 218 3198ft 0kts
07-Jan-19 07:59 46.924568 -114.090810 218 3198ft 0kts
07-Jan-19 08:00 46.924568 -114.090810 218 3198ft 0kts
07-Jan-19 08:01 46.924568 -114.090810 218 3198ft 0kts
07-Jan-19 08:02 46.924568 -114.090810 218 3198ft 0kts
07-Jan-19 08:03 46.924568 -114.090810 218 3198ft 0kts
07-Jan-19 08:04 46.924568 -114.090810 218 3198ft 0kts
07-Jan-19 08:05 46.924568 -114.090810 218 3198ft 0kts
07-Jan-19 08:06 46.924568 -114.090810 218 3198ft 0kts
07-Jan-19 08:07 46.924568 -114.090810 218 3198ft 0kts
07-Jan-19 08:08 46.924568 -114.090810 218 3198ft 0kts
07-Jan-19 08:09 46.924568 -114.090810 218 3198ft 0kts
07-Jan-19 08:10 46.924568 -114.090810 218 3198ft 0kts
07-Jan-19 08:11 46.924568 -114.090810 218 3198ft 0kts
07-Jan-19 08:12 46.924568 -114.090810 218 3198ft 0kts
07-Jan-19 08:13 46.924568 -114.090810 218 3198ft 0kts
07-Jan-19 08:14 46.924568 -114.090810 218 3198ft 0kts
07-Jan-19 08:15 46.924568 -114.090810 218 3198ft 0kts
07-Jan-19 08:16 46.924568 -114.090810 218 3198ft 0kts
07-Jan-19 08:17 46.924568 -114.090810 218 3198ft 0kts
07-Jan-19 08:18 46.924568 -114.090810 218 3198ft 0kts
07-Jan-19 08:19 46.924568 -114.090810 218 3198ft 0kts
07-Jan-19 08:20 46.924568 -114.090810 218 3198ft 0kts
07-Jan-19 08:21 46.924568 -114.090810 218 3198ft 0kts
07-Jan-19 08:22 46.924568 -114.090810 218 3198ft 0kts
07-Jan-19 08:23 46.924568 -114.090810 218 3198ft 0kts
07-Jan-19 08:24 46.924568 -114.090810 218 3198ft 0kts
07-Jan-19 08:25 46.924568 -114.090810 218 3198ft 0kts
07-Jan-19 08:26 46.924568 -114.090810 218 3198ft 0kts
07-Jan-19 08:27 46.924568 -114.090810 218 3198ft 0kts
07-Jan-19 08:28 46.924568 -114.090810 218 3198ft 0kts
07-Jan-19 08:29 46.924568 -114.090810 218 3198ft 0kts
07-Jan-19 08:30 46.924568 -114.090810 218 3198ft 0kts
07-Jan-19 08:31 46.924568 -114.090810 218 3198ft 0kts
07-Jan-19 08:32 46.924568 -114.090810 218 3198ft 0kts
07-Jan-19 08:33 46.924568 -114.090810 218 3198ft 0kts
07-Jan-19 08:34 46.924568 -114.090810 218 3198ft 0kts
07-Jan-19 08:35 46.924568 -114.090810 218 3198ft 0kts
07-Jan-19 08:36 46.924568 -114.090810 218 3198ft 0kts
07-Jan-19 08:37 46.924568 -114.090810 218 3198ft 0kts
07-Jan-19 08:38 46.924568 -114.090810 218 3198ft 0kts
07-Jan-19 08:39 46.924568 -114.090810 218 3198ft 0kts
07-Jan-19 08:40 46.924568 -114.090810 218 3198ft 0kts
07-Jan-19 08:41 46.924568 -114.090810 218 3198ft 0kts
07-Jan-19 08:42 46.924568 -114.090810 218 3198ft 0kts
07-Jan-19 08:43 46.924568 -114.090810 218 3198ft 0kts
07-Jan-19 08:44 46.924568 -114.090810 218 3198ft 0kts
07-Jan-19 08:45 46.924568 -114.090810 218 3198ft 0kts
07-Jan-19 08:46 46.924568 -114.090810 218 3198ft 0kts
07-Jan-19 08:47 46.924568 -114.090810 218 3198ft 0kts
07-Jan-19 08:48 46.924568 -114.090810 218 3198ft 0kts
07-Jan-19 08:49 46.924568 -114.090810 218 3198ft 0kts
07-Jan-19 08:50 46.924567 -114.090811 218 3198ft 0kts
07-Jan-19 08:51 46.923718 -114.091144 142 3198ft 0kts
07-Jan-19 08:52 46.923689 -114.091110 141 3198ft 0kts
07-Jan-19 08:53 46.922113 -114.089707 202 3198ft 16kts
07-Jan-19 08:54 46.919587 -114.093945 308 3198ft 18kts
07-Jan-19 08:55 46.922902 -114.099651 307 3198ft 18kts
07-Jan-19 08:56 46.925466 -114.105478 221 3198ft 14kts
07-Jan-19 08:57 46.922057 -114.101722 135 3207ft 82kts
07-Jan-19 08:58 46.903012 -114.081453 200 3944ft 83kts
07-Jan-19 08:59 46.880967 -114.087024 157 4651ft 90kts
07-Jan-19 09:00 46.858260 -114.071173 176 5386ft 89kts
07-Jan-19 09:01 46.834067 -114.064490 179 6096ft 87kts
07-Jan-19 09:02 46.810362 -114.058189 180 6691ft 88kts
07-Jan-19 09:03 46.785566 -114.052042 178 7305ft 87kts
07-Jan-19 09:04 46.762110 -114.045809 180 7912ft 86kts
07-Jan-19 09:05 46.737992 -114.039566 181 8460ft 89kts
07-Jan-19 09:06 46.713346 -114.033252 183 8999ft 91kts
07-Jan-19 09:07 46.697462 -114.007446 64 9491ft 124kts
07-Jan-19 09:08 46.722017 -114.002798 321 9982ft 91kts
07-Jan-19 09:09 46.742069 -114.020671 314 10464ft 83kts
07-Jan-19 09:11 46.762939 -114.035246 321 10892ft 83kts
07-Jan-19 09:12 46.784695 -114.046212 326 11285ft 82kts
07-Jan-19 09:13 46.806562 -114.054842 328 11663ft 81kts
07-Jan-19 09:14 46.828161 -114.061980 330 12024ft 79kts
07-Jan-19 09:15 46.840307 -114.078896 285 12343ft 64kts
07-Jan-19 09:16 46.846097 -114.103366 288 12651ft 63kts
07-Jan-19 09:17 46.852976 -114.127256 290 12972ft 64kts
07-Jan-19 09:18 46.860673 -114.150902 292 13296ft 64kts
07-Jan-19 09:19 46.868711 -114.173740 293 13597ft 64kts
07-Jan-19 09:20 46.877087 -114.196366 293 13881ft 63kts
07-Jan-19 09:21 46.886226 -114.220233 295 14017ft 77kts
07-Jan-19 09:22 46.897921 -114.249584 295 14010ft 86kts
07-Jan-19 09:23 46.910078 -114.279639 295 14013ft 90kts
07-Jan-19 09:24 46.923447 -114.312513 295 14012ft 97kts
07-Jan-19 09:25 46.937637 -114.347247 295 14011ft 101kts
07-Jan-19 09:26 46.952175 -114.382770 295 14011ft 103kts
07-Jan-19 09:27 46.967084 -114.419172 295 14010ft 104kts
07-Jan-19 09:28 46.982087 -114.455831 295 14010ft 105kts
07-Jan-19 09:29 46.997226 -114.492883 295 14010ft 106kts
07-Jan-19 09:30 47.012347 -114.529957 294 14010ft 106kts
07-Jan-19 09:31 47.027528 -114.567225 294 14010ft 107kts
07-Jan-19 09:31 47.040243 -114.598490 294 14009ft 107kts
07-Jan-19 09:33 47.058128 -114.642557 294 14009ft 107kts
07-Jan-19 09:33 47.070483 -114.673676 293 14016ft 108kts
07-Jan-19 09:34 47.085487 -114.711332 293 14015ft 110kts
07-Jan-19 09:36 47.102717 -114.754201 294 14015ft 110kts
07-Jan-19 09:37 47.118313 -114.792007 294 14015ft 110kts
07-Jan-19 09:37 47.131244 -114.824112 294 14015ft 110kts
07-Jan-19 09:38 47.146343 -114.861612 294 14014ft 110kts
07-Jan-19 09:39 47.161432 -114.899112 294 14014ft 110kts
07-Jan-19 09:40 47.176830 -114.937435 294 14014ft 110kts
07-Jan-19 09:41 47.192225 -114.975806 294 14013ft 110kts
07-Jan-19 09:42 47.207747 -115.014539 293 14013ft 110kts
07-Jan-19 09:43 47.223130 -115.052983 293 14013ft 111kts
07-Jan-19 09:44 47.238669 -115.091888 293 14013ft 111kts
07-Jan-19 09:45 47.254219 -115.130876 293 14012ft 111kts
07-Jan-19 09:46 47.269696 -115.169735 293 14012ft 111kts
07-Jan-19 09:47 47.285408 -115.209227 293 14012ft 112kts
07-Jan-19 09:48 47.301014 -115.248537 293 14012ft 112kts
07-Jan-19 09:49 47.316661 -115.287990 293 14012ft 112kts
07-Jan-19 09:50 47.332274 -115.327424 293 14011ft 112kts
07-Jan-19 09:51 47.347857 -115.366839 293 14011ft 112kts
07-Jan-19 09:52 47.363194 -115.405682 293 14011ft 111kts
07-Jan-19 09:53 47.378462 -115.444413 293 14016ft 111kts
07-Jan-19 09:54 47.393755 -115.483252 293 14030ft 111kts
07-Jan-19 09:55 47.409162 -115.522452 293 14042ft 110kts
07-Jan-19 09:56 47.424458 -115.561427 293 14052ft 110kts
07-Jan-19 09:57 47.439751 -115.600449 293 14061ft 110kts
07-Jan-19 09:58 47.455046 -115.639546 293 14068ft 110kts
07-Jan-19 09:59 47.463584 -115.679206 269 14079ft 107kts
07-Jan-19 10:00 47.464586 -115.721661 271 14079ft 108kts
07-Jan-19 10:01 47.466589 -115.765772 272 14079ft 108kts
07-Jan-19 10:02 47.469119 -115.810239 273 14079ft 108kts
07-Jan-19 10:03 47.471919 -115.854743 273 14078ft 108kts
07-Jan-19 10:04 47.474699 -115.897939 274 14151ft 103kts
07-Jan-19 10:05 47.477582 -115.940285 274 14151ft 104kts
07-Jan-19 10:06 47.480486 -115.982826 274 14151ft 105kts
07-Jan-19 10:07 47.483357 -116.024953 274 14150ft 105kts
07-Jan-19 10:08 47.486263 -116.067742 274 14150ft 105kts
07-Jan-19 10:09 47.489137 -116.110201 275 14150ft 105kts
07-Jan-19 10:10 47.492002 -116.152738 274 14150ft 104kts
07-Jan-19 10:11 47.494859 -116.195412 275 14149ft 104kts
07-Jan-19 10:12 47.497697 -116.238056 275 14149ft 104kts
07-Jan-19 10:13 47.500511 -116.280517 275 14149ft 104kts
07-Jan-19 10:14 47.503306 -116.322971 275 14148ft 104kts
07-Jan-19 10:15 47.506082 -116.365363 275 14148ft 104kts
07-Jan-19 10:16 47.508815 -116.407323 275 14148ft 104kts
07-Jan-19 10:17 47.511529 -116.449239 275 14148ft 104kts
07-Jan-19 10:18 47.514167 -116.490228 275 14147ft 103kts
07-Jan-19 10:19 47.516808 -116.531474 275 14147ft 103kts
07-Jan-19 10:20 47.519799 -116.578116 275 13564ft 136kts
07-Jan-19 10:21 47.543048 -116.627150 313 12756ft 158kts
07-Jan-19 10:22 47.575540 -116.666996 312 12236ft 156kts
07-Jan-19 10:23 47.607582 -116.706414 312 11745ft 156kts
07-Jan-19 10:24 47.640528 -116.747344 312 11046ft 166kts
07-Jan-19 10:25 47.675420 -116.791307 312 10212ft 176kts
07-Jan-19 10:26 47.711995 -116.838215 312 9232ft 184kts
07-Jan-19 10:27 47.750371 -116.888094 312 8250ft 183kts
07-Jan-19 10:28 47.786538 -116.935821 305 7233ft 169kts
07-Jan-19 10:29 47.797391 -116.999123 263 6222ft 160kts
07-Jan-19 10:30 47.794238 -117.062127 263 5988ft 147kts
07-Jan-19 10:31 47.774108 -117.114717 238 5695ft 152kts
07-Jan-19 10:32 47.754551 -117.159769 240 4834ft 105kts
07-Jan-19 10:33 47.741391 -117.190383 240 4304ft 85kts
07-Jan-19 10:34 47.729024 -117.219032 241 3767ft 80kts
07-Jan-19 10:35 47.717033 -117.246673 239 3258ft 80kts
07-Jan-19 10:36 47.705383 -117.273631 238 2785ft 72kts
07-Jan-19 10:37 47.694584 -117.298638 237 2315ft 67kts
07-Jan-19 10:38 47.684661 -117.320129 235 1949ft 50kts
07-Jan-19 10:39 47.680998 -117.320665 222 1949ft 15kts
07-Jan-19 10:40 47.680588 -117.321065 254 1949ft 0kts
07-Jan-19 10:41 47.680588 -117.321065 254 1949ft 0kts

Navigation Log

Ident Type
Flight plan parsing failed, navigation log unavailable